createdAt,value
2023-03-18T00:00:19.520Z,2.40
2023-03-18T00:02:47.895Z,2.58
2023-03-18T00:05:15.284Z,2.70
2023-03-18T00:07:42.533Z,2.42
2023-03-18T00:10:12.050Z,2.70
2023-03-18T00:12:40.461Z,2.35
2023-03-18T00:15:09.125Z,2.28
2023-03-18T00:17:38.013Z,2.00
2023-03-18T00:20:06.893Z,2.53
2023-03-18T00:22:35.943Z,2.30
2023-03-18T00:25:03.599Z,2.45
2023-03-18T00:27:30.974Z,2.75
2023-03-18T00:29:58.690Z,2.78
2023-03-18T00:32:29.232Z,2.20
2023-03-18T00:34:57.081Z,2.60
2023-03-18T00:37:31.330Z,2.30
2023-03-18T00:39:59.893Z,2.20
2023-03-18T00:42:27.493Z,2.15
2023-03-18T00:44:54.744Z,2.65
2023-03-18T00:47:22.225Z,2.72
2023-03-18T00:49:49.622Z,2.20
2023-03-18T00:52:16.880Z,2.05
2023-03-18T00:54:44.213Z,2.95
2023-03-18T00:57:11.464Z,2.15
2023-03-18T00:59:38.714Z,2.55
2023-03-18T01:02:05.984Z,2.08
2023-03-18T01:04:33.829Z,1.90
2023-03-18T01:07:01.422Z,2.15
2023-03-18T01:09:28.644Z,2.20
2023-03-18T01:11:55.900Z,2.63
2023-03-18T01:14:23.145Z,2.20
2023-03-18T01:16:50.489Z,1.80
2023-03-18T01:19:17.950Z,1.70
2023-03-18T01:21:45.214Z,2.03
2023-03-18T01:24:13.242Z,1.73
2023-03-18T01:26:40.518Z,3.53
2023-03-18T01:29:07.910Z,1.85
2023-03-18T01:31:35.849Z,2.00
2023-03-18T01:34:03.244Z,1.90
2023-03-18T01:36:30.599Z,2.03
2023-03-18T01:39:00.749Z,2.45
2023-03-18T01:41:28.853Z,2.35
2023-03-18T01:43:56.104Z,2.30
2023-03-18T01:46:37.135Z,1.92
2023-03-18T01:49:06.883Z,2.10
2023-03-18T01:51:34.896Z,2.00
2023-03-18T01:54:04.250Z,1.92
2023-03-18T01:56:31.692Z,1.98
2023-03-18T01:59:00.824Z,2.08
2023-03-18T02:01:31.075Z,1.77
2023-03-18T02:03:59.861Z,2.10
2023-03-18T02:06:27.636Z,1.98
2023-03-18T02:08:55.559Z,2.03
2023-03-18T02:13:51.020Z,2.45
2023-03-18T02:16:24.104Z,2.20
2023-03-18T02:18:53.477Z,1.67
2023-03-18T02:21:20.988Z,1.65
2023-03-18T02:23:56.856Z,1.88
2023-03-18T02:26:24.096Z,2.13
2023-03-18T02:28:52.841Z,1.70
2023-03-18T02:31:20.725Z,2.25
2023-03-18T02:33:48.415Z,1.92
2023-03-18T02:36:20.650Z,1.83
2023-03-18T02:38:50.825Z,1.65
2023-03-18T02:41:20.138Z,1.90
2023-03-18T02:43:47.761Z,2.20
2023-03-18T02:46:15.015Z,2.00
2023-03-18T02:48:44.299Z,2.00
2023-03-18T02:51:12.155Z,2.03
2023-03-18T02:53:39.413Z,1.85
2023-03-18T02:56:07.218Z,1.50
2023-03-18T02:58:34.763Z,1.90
2023-03-18T03:01:02.055Z,1.40
2023-03-18T03:03:29.418Z,2.10
2023-03-18T03:05:56.850Z,2.17
2023-03-18T03:08:24.536Z,2.03
2023-03-18T03:10:52.557Z,2.75
2023-03-18T03:13:20.895Z,1.90
2023-03-18T03:15:48.616Z,2.28
2023-03-18T03:18:16.734Z,2.40
2023-03-18T03:20:44.149Z,2.80
2023-03-18T03:23:12.653Z,1.88
2023-03-18T03:25:40.636Z,2.30
2023-03-18T03:28:08.551Z,2.28
2023-03-18T03:30:36.868Z,2.45
2023-03-18T03:33:04.712Z,2.35
2023-03-18T03:35:32.204Z,2.17
2023-03-18T03:37:59.588Z,2.10
2023-03-18T03:40:27.885Z,2.15
2023-03-18T03:42:55.198Z,2.30
2023-03-18T03:45:22.705Z,1.92
2023-03-18T03:47:50.033Z,2.30
2023-03-18T03:50:18.436Z,2.00
2023-03-18T03:52:46.264Z,2.28
2023-03-18T03:55:15.231Z,2.20
2023-03-18T03:57:42.700Z,2.53
2023-03-18T04:00:13.709Z,2.10
2023-03-18T04:02:42.122Z,2.47
2023-03-18T04:05:10.378Z,2.28
2023-03-18T04:07:38.108Z,2.80
2023-03-18T04:10:05.991Z,2.42
2023-03-18T04:12:33.221Z,2.13
2023-03-18T04:15:00.481Z,2.08
2023-03-18T04:17:27.740Z,2.00
2023-03-18T04:19:54.974Z,2.75
2023-03-18T04:22:22.669Z,2.88
2023-03-18T04:24:49.968Z,2.50
2023-03-18T04:27:18.546Z,2.50
2023-03-18T04:29:46.703Z,1.92
2023-03-18T04:32:14.241Z,2.13
2023-03-18T04:34:41.588Z,2.28
2023-03-18T04:37:09.277Z,2.17
2023-03-18T04:39:36.555Z,2.17
2023-03-18T04:42:03.881Z,2.13
2023-03-18T04:44:31.165Z,2.05
2023-03-18T04:46:58.514Z,2.55
2023-03-18T04:49:25.801Z,3.65
2023-03-18T04:51:53.131Z,2.42
2023-03-18T04:54:20.405Z,2.10
2023-03-18T04:56:47.769Z,2.38
2023-03-18T04:59:15.202Z,2.65
2023-03-18T05:01:42.692Z,2.15
2023-03-18T05:04:10.452Z,3.22
2023-03-18T05:06:38.676Z,2.33
2023-03-18T05:09:06.247Z,2.30
2023-03-18T05:11:33.770Z,2.33
2023-03-18T05:14:01.020Z,2.22
2023-03-18T05:16:28.341Z,2.20
2023-03-18T05:18:55.608Z,1.92
2023-03-18T05:21:22.847Z,2.60
2023-03-18T05:23:50.061Z,2.20
2023-03-18T05:26:17.582Z,2.17
2023-03-18T05:28:45.062Z,2.08
2023-03-18T05:31:12.386Z,2.70
2023-03-18T05:33:41.999Z,2.25
2023-03-18T05:36:09.750Z,2.53
2023-03-18T05:38:37.194Z,1.90
2023-03-18T05:41:04.719Z,2.50
2023-03-18T05:43:32.053Z,2.15
2023-03-18T05:45:59.462Z,2.25
2023-03-18T05:48:27.142Z,2.85
2023-03-18T05:50:54.375Z,2.20
2023-03-18T05:53:22.214Z,2.08
2023-03-18T05:55:49.426Z,2.42
2023-03-18T05:58:16.685Z,2.63
2023-03-18T06:00:43.990Z,3.08
2023-03-18T06:03:11.280Z,2.53
2023-03-18T06:05:38.582Z,2.95
2023-03-18T06:08:07.154Z,2.70
2023-03-18T06:10:34.430Z,2.60
2023-03-18T06:13:01.703Z,3.28
2023-03-18T06:15:28.985Z,2.72
2023-03-18T06:17:56.439Z,2.70
2023-03-18T06:20:23.686Z,2.25
2023-03-18T06:22:51.826Z,2.58
2023-03-18T06:25:20.417Z,2.95
2023-03-18T06:27:48.125Z,2.58
2023-03-18T06:30:16.241Z,4.18
2023-03-18T06:32:43.907Z,2.80
2023-03-18T06:35:12.183Z,2.78
2023-03-18T06:37:40.198Z,3.10
2023-03-18T06:40:08.190Z,2.85
2023-03-18T06:42:35.840Z,3.33
2023-03-18T06:45:03.381Z,4.10
2023-03-18T06:47:30.744Z,3.85
2023-03-18T06:49:58.350Z,3.60
2023-03-18T06:52:25.587Z,4.18
2023-03-18T06:54:53.572Z,3.85
2023-03-18T06:57:21.255Z,4.05
2023-03-18T06:59:48.565Z,3.80
2023-03-18T07:02:15.963Z,3.88
2023-03-18T07:04:43.297Z,3.95
2023-03-18T07:07:10.933Z,3.63
2023-03-18T07:09:38.183Z,3.58
2023-03-18T07:12:06.544Z,3.70
2023-03-18T07:14:33.908Z,4.35
2023-03-18T07:17:02.290Z,6.20
2023-03-18T07:19:29.613Z,4.53
2023-03-18T07:21:57.208Z,3.85
2023-03-18T07:24:24.546Z,4.03
2023-03-18T07:26:52.370Z,4.20
2023-03-18T07:29:20.557Z,3.90
2023-03-18T07:31:48.624Z,3.78
2023-03-18T07:34:17.822Z,4.13
2023-03-18T07:36:45.439Z,3.92
2023-03-18T07:39:12.756Z,3.53
2023-03-18T07:41:40.014Z,3.83
2023-03-18T07:44:07.994Z,3.30
2023-03-18T07:46:35.374Z,4.30
2023-03-18T07:49:02.927Z,3.85
2023-03-18T07:51:30.499Z,3.70
2023-03-18T07:53:57.784Z,3.65
2023-03-18T07:56:25.983Z,3.17
2023-03-18T07:58:53.308Z,3.53
2023-03-18T08:01:20.581Z,3.35
2023-03-18T08:03:48.391Z,3.75
2023-03-18T08:06:15.934Z,3.17
2023-03-18T08:08:43.808Z,2.95
2023-03-18T08:11:11.176Z,3.40
2023-03-18T08:13:39.921Z,2.40
2023-03-18T08:16:07.638Z,2.40
2023-03-18T08:18:35.003Z,2.55
2023-03-18T08:21:02.371Z,2.40
2023-03-18T08:23:29.754Z,2.17
2023-03-18T08:25:57.074Z,2.40
2023-03-18T08:28:24.264Z,2.50
2023-03-18T08:30:55.322Z,2.28
2023-03-18T08:33:23.470Z,2.53
2023-03-18T08:35:52.186Z,2.90
2023-03-18T08:38:19.725Z,2.45
2023-03-18T08:40:47.559Z,2.70
2023-03-18T08:43:14.918Z,2.20
2023-03-18T08:45:42.478Z,2.35
2023-03-18T08:48:10.130Z,2.35
2023-03-18T08:50:37.974Z,2.03
2023-03-18T08:53:05.810Z,2.70
2023-03-18T08:55:35.387Z,2.40
2023-03-18T08:58:04.495Z,2.80
2023-03-18T09:00:32.041Z,2.22
2023-03-18T09:02:59.249Z,2.55
2023-03-18T09:05:26.811Z,2.00
2023-03-18T09:07:54.075Z,2.08
2023-03-18T09:10:21.602Z,2.22
2023-03-18T09:12:50.028Z,2.25
2023-03-18T09:15:20.265Z,2.15
2023-03-18T09:18:03.825Z,2.15
2023-03-18T09:20:36.125Z,2.53
2023-03-18T09:23:04.122Z,3.05
2023-03-18T09:25:31.724Z,3.08
2023-03-18T09:27:59.092Z,2.40
2023-03-18T09:30:26.634Z,2.00
2023-03-18T09:32:54.175Z,2.65
2023-03-18T09:35:21.512Z,1.88
2023-03-18T09:37:48.717Z,2.28
2023-03-18T09:40:38.247Z,2.00
2023-03-18T09:43:08.745Z,2.50
2023-03-18T09:45:35.968Z,2.13
2023-03-18T09:48:22.434Z,2.10
2023-03-18T09:51:09.080Z,2.42
2023-03-18T09:53:57.432Z,1.63
2023-03-18T09:56:30.202Z,2.03
2023-03-18T09:59:07.517Z,2.10
2023-03-18T10:01:37.258Z,2.35
2023-03-18T10:04:14.908Z,2.45
2023-03-18T10:06:45.759Z,2.10
2023-03-18T10:09:16.034Z,1.90
2023-03-18T10:11:44.866Z,2.35
2023-03-18T10:14:12.222Z,2.10
2023-03-18T10:16:59.711Z,1.98
2023-03-18T10:19:28.245Z,2.05
2023-03-18T10:22:14.364Z,2.13
2023-03-18T10:24:49.749Z,2.17
2023-03-18T10:27:20.169Z,2.63
2023-03-18T10:30:05.849Z,1.85
2023-03-18T10:32:49.549Z,2.38
2023-03-18T10:35:27.620Z,2.38
2023-03-18T10:38:13.788Z,2.10
2023-03-18T10:40:41.534Z,2.10
2023-03-18T10:43:16.905Z,2.55
2023-03-18T10:45:44.735Z,1.98
2023-03-18T10:48:15.722Z,2.30
2023-03-18T10:50:50.355Z,1.75
2023-03-18T10:53:20.628Z,1.85
2023-03-18T10:55:59.973Z,1.70
2023-03-18T10:58:29.188Z,1.67
2023-03-18T11:00:56.710Z,1.73
2023-03-18T11:03:35.326Z,1.42
2023-03-18T11:06:04.864Z,1.92
2023-03-18T11:08:36.961Z,1.92
2023-03-18T11:11:17.650Z,1.90
2023-03-18T11:13:53.507Z,1.70
2023-03-18T11:16:46.810Z,2.42
2023-03-18T11:19:26.160Z,1.88
2023-03-18T11:22:02.274Z,3.05
2023-03-18T11:24:36.418Z,2.05
2023-03-18T11:27:04.465Z,1.60
2023-03-18T11:29:36.119Z,1.67
2023-03-18T11:32:03.405Z,1.77
2023-03-18T11:34:35.693Z,1.55
2023-03-18T11:37:08.483Z,1.65
2023-03-18T11:39:37.874Z,1.90
2023-03-18T11:42:16.273Z,1.60
2023-03-18T11:44:43.595Z,1.98
2023-03-18T11:47:31.096Z,1.40
2023-03-18T11:49:58.550Z,1.60
2023-03-18T11:52:34.654Z,1.42
2023-03-18T11:55:34.661Z,1.60
2023-03-18T11:58:24.908Z,1.85
2023-03-18T12:00:52.718Z,1.95
2023-03-18T12:03:20.006Z,1.55
2023-03-18T12:05:53.367Z,1.30
2023-03-18T12:08:57.190Z,1.02
2023-03-18T12:11:27.391Z,1.30
2023-03-18T12:13:57.435Z,1.63
2023-03-18T12:16:40.317Z,1.35
2023-03-18T12:19:10.418Z,1.40
2023-03-18T12:21:43.902Z,1.30
2023-03-18T12:24:29.814Z,2.00
2023-03-18T12:27:17.294Z,1.50
2023-03-18T12:29:47.967Z,1.95
2023-03-18T12:32:33.827Z,1.30
2023-03-18T12:35:06.620Z,1.83
2023-03-18T12:37:43.019Z,1.80
2023-03-18T12:40:22.415Z,2.05
2023-03-18T12:43:08.887Z,1.60
2023-03-18T12:45:41.082Z,1.92
2023-03-18T12:48:12.714Z,1.48
2023-03-18T12:50:47.641Z,1.60
2023-03-18T12:53:17.631Z,1.50
2023-03-18T12:55:50.238Z,1.90
2023-03-18T12:58:20.278Z,1.48
2023-03-18T13:00:48.017Z,1.70
2023-03-18T13:03:24.819Z,1.42
2023-03-18T13:06:05.212Z,1.58
2023-03-18T13:08:47.750Z,2.30
2023-03-18T13:11:17.984Z,3.63
2023-03-18T13:13:50.007Z,3.05
2023-03-18T13:16:19.040Z,2.00
2023-03-18T13:18:50.545Z,1.60
2023-03-18T13:21:20.675Z,2.20
2023-03-18T13:23:54.058Z,2.10
2023-03-18T13:26:39.726Z,2.22
2023-03-18T13:29:10.405Z,2.17
2023-03-18T13:31:47.744Z,1.70
2023-03-18T13:34:18.371Z,1.65
2023-03-18T13:36:53.374Z,1.83
2023-03-18T13:41:48.340Z,1.80
2023-03-18T13:44:19.355Z,1.50
2023-03-18T13:46:54.008Z,2.20
2023-03-18T13:49:23.983Z,2.00
2023-03-18T13:51:57.484Z,2.03
2023-03-18T13:54:26.154Z,1.77
2023-03-18T13:56:56.008Z,2.42
2023-03-18T13:59:35.572Z,1.63
2023-03-18T14:02:21.308Z,1.58
2023-03-18T14:04:49.729Z,1.60
2023-03-18T14:07:17.777Z,1.67
2023-03-18T14:10:18.337Z,1.98
2023-03-18T14:12:49.849Z,1.85
2023-03-18T14:15:17.012Z,1.55
2023-03-18T14:17:49.575Z,1.90
2023-03-18T14:20:19.749Z,1.48
2023-03-18T14:22:48.208Z,1.70
2023-03-18T14:25:16.026Z,1.50
2023-03-18T14:27:51.379Z,1.88
2023-03-18T14:30:40.864Z,1.73
2023-03-18T14:33:20.287Z,1.65
2023-03-18T14:35:49.420Z,2.28
2023-03-18T14:38:35.160Z,2.00
2023-03-18T14:41:04.148Z,1.52
2023-03-18T14:43:37.337Z,1.48
2023-03-18T14:46:06.813Z,1.98
2023-03-18T14:48:34.610Z,1.70
2023-03-18T14:51:08.335Z,2.13
2023-03-18T14:53:35.619Z,1.55
2023-03-18T14:56:03.880Z,1.60
2023-03-18T14:58:31.551Z,1.80
2023-03-18T15:01:06.788Z,2.20
2023-03-18T15:03:34.588Z,1.80
2023-03-18T15:06:03.489Z,1.65
2023-03-18T15:08:46.824Z,1.70
2023-03-18T15:11:16.604Z,1.90
2023-03-18T15:13:44.971Z,1.95
2023-03-18T15:16:13.678Z,1.80
2023-03-18T15:18:41.237Z,2.03
2023-03-18T15:21:08.421Z,2.05
2023-03-18T15:23:37.639Z,1.85
2023-03-18T15:26:09.398Z,1.60
2023-03-18T15:28:37.404Z,1.85
2023-03-18T15:31:05.916Z,2.10
2023-03-18T15:33:38.280Z,1.65
2023-03-18T15:36:15.127Z,1.92
2023-03-18T15:38:49.300Z,1.83
2023-03-18T15:41:17.986Z,1.57
2023-03-18T15:43:46.560Z,1.63
2023-03-18T15:46:18.865Z,2.20
2023-03-18T15:48:56.563Z,1.83
2023-03-18T15:51:28.566Z,1.50
2023-03-18T15:53:57.826Z,1.85
2023-03-18T15:56:26.772Z,1.60
2023-03-18T15:59:05.315Z,1.60
2023-03-18T16:01:33.130Z,1.75
2023-03-18T16:04:00.712Z,1.77
2023-03-18T16:06:28.848Z,1.48
2023-03-18T16:08:56.094Z,1.90
2023-03-18T16:11:24.934Z,2.20
2023-03-18T16:13:53.352Z,1.77
2023-03-18T16:16:30.643Z,1.83
2023-03-18T16:18:59.652Z,1.85
2023-03-18T16:21:27.236Z,1.60
2023-03-18T16:23:55.124Z,1.52
2023-03-18T16:26:22.713Z,2.15
2023-03-18T16:28:49.978Z,1.67
2023-03-18T16:31:17.204Z,1.27
2023-03-18T16:33:46.418Z,1.83
2023-03-18T16:36:21.266Z,1.27
2023-03-18T16:38:48.493Z,1.52
2023-03-18T16:41:15.732Z,1.45
2023-03-18T16:43:45.383Z,1.95
2023-03-18T16:46:14.600Z,1.40
2023-03-18T16:48:41.945Z,1.40
2023-03-18T16:51:09.162Z,1.80
2023-03-18T16:53:36.473Z,1.73
2023-03-18T16:56:09.907Z,1.88
2023-03-18T16:58:37.999Z,1.40
2023-03-18T17:01:07.543Z,1.40
2023-03-18T17:03:35.313Z,1.75
2023-03-18T17:06:02.544Z,1.38
2023-03-18T17:08:29.769Z,1.58
2023-03-18T17:11:07.669Z,1.70
2023-03-18T17:13:38.723Z,1.63
2023-03-18T17:16:06.175Z,2.00
2023-03-18T17:18:33.416Z,1.52
2023-03-18T17:21:00.898Z,3.83
2023-03-18T17:23:29.058Z,4.70
2023-03-18T17:25:59.294Z,3.50
2023-03-18T17:28:33.004Z,3.70
2023-03-18T17:31:00.356Z,2.75
2023-03-18T17:33:31.041Z,3.40
2023-03-18T17:35:58.847Z,4.68
2023-03-18T17:38:26.212Z,4.22
2023-03-18T17:40:54.258Z,3.45
2023-03-18T17:43:29.064Z,2.00
2023-03-18T17:46:00.751Z,1.83
2023-03-18T17:48:29.723Z,1.70
2023-03-18T17:50:58.186Z,2.00
2023-03-18T17:53:25.781Z,3.53
2023-03-18T17:55:53.689Z,2.47
2023-03-18T17:58:22.213Z,2.10
2023-03-18T18:00:49.848Z,2.70
2023-03-18T18:03:22.985Z,3.10
2023-03-18T18:05:50.253Z,4.47
2023-03-18T18:08:18.195Z,3.40
2023-03-18T18:10:46.057Z,3.92
2023-03-18T18:13:17.577Z,2.80
2023-03-18T18:15:45.983Z,3.05
2023-03-18T18:18:23.151Z,2.97
2023-03-18T18:20:53.360Z,2.42
2023-03-18T18:23:28.940Z,2.63
2023-03-18T18:25:58.036Z,2.50
2023-03-18T18:28:29.429Z,4.97
2023-03-18T18:30:56.867Z,6.20
2023-03-18T18:33:24.294Z,9.95
2023-03-18T18:35:51.697Z,11.10
2023-03-18T18:38:18.986Z,4.38
2023-03-18T18:40:46.556Z,13.90
2023-03-18T18:43:13.860Z,15.50
2023-03-18T18:45:41.163Z,15.10
2023-03-18T18:48:12.875Z,13.23
2023-03-18T18:50:41.531Z,14.05
2023-03-18T18:53:28.461Z,10.70
2023-03-18T18:55:57.392Z,10.68
2023-03-18T18:58:28.710Z,18.80
2023-03-18T19:00:56.060Z,14.15
2023-03-18T19:03:24.698Z,9.45
2023-03-18T19:05:53.716Z,12.48
2023-03-18T19:08:22.669Z,12.80
2023-03-18T19:10:51.934Z,14.00
2023-03-18T19:13:19.203Z,14.80
2023-03-18T19:15:47.560Z,17.33
2023-03-18T19:18:25.097Z,9.90
2023-03-18T19:20:53.225Z,8.20
2023-03-18T19:23:23.693Z,8.57
2023-03-18T19:25:52.180Z,6.50
2023-03-18T19:28:47.830Z,5.90
2023-03-18T19:31:18.929Z,4.80
2023-03-18T19:33:50.642Z,4.88
2023-03-18T19:36:28.960Z,4.70
2023-03-18T19:38:57.968Z,3.85
2023-03-18T19:41:25.231Z,3.53
2023-03-18T19:43:52.723Z,4.05
2023-03-18T19:46:23.783Z,3.78
2023-03-18T19:48:51.375Z,4.80
2023-03-18T19:51:18.713Z,5.05
2023-03-18T19:53:47.143Z,5.25
2023-03-18T19:56:28.763Z,3.22
2023-03-18T19:58:58.068Z,4.22
2023-03-18T20:01:26.126Z,4.40
2023-03-18T20:03:55.567Z,4.22
2023-03-18T20:06:22.850Z,4.18
2023-03-18T20:08:50.752Z,2.83
2023-03-18T20:11:20.905Z,3.00
2023-03-18T20:13:48.565Z,2.70
2023-03-18T20:16:16.755Z,2.40
2023-03-18T20:18:44.469Z,3.78
2023-03-18T20:21:20.568Z,3.67
2023-03-18T20:23:47.881Z,2.80
2023-03-18T20:26:15.802Z,2.70
2023-03-18T20:28:45.770Z,2.75
2023-03-18T20:31:14.548Z,3.10
2023-03-18T20:33:41.918Z,2.72
2023-03-18T20:36:15.610Z,2.55
2023-03-18T20:38:43.065Z,3.25
2023-03-18T20:41:16.277Z,2.53
2023-03-18T20:43:44.620Z,2.20
2023-03-18T20:46:13.827Z,2.45
2023-03-18T20:48:41.761Z,3.13
2023-03-18T20:51:34.786Z,2.33
2023-03-18T20:54:02.357Z,2.30
2023-03-18T20:56:32.924Z,2.30
2023-03-18T20:59:00.751Z,2.15
2023-03-18T21:01:28.310Z,2.22
2023-03-18T21:03:55.865Z,2.25
2023-03-18T21:06:23.138Z,2.70
2023-03-18T21:08:50.428Z,2.53
2023-03-18T21:11:21.737Z,2.60
2023-03-18T21:13:49.213Z,2.58
2023-03-18T21:16:17.409Z,2.85
2023-03-18T21:18:49.670Z,2.97
2023-03-18T21:21:29.823Z,2.65
2023-03-18T21:23:57.162Z,2.40
2023-03-18T21:26:24.495Z,2.10
2023-03-18T21:28:52.633Z,2.10
2023-03-18T21:31:20.330Z,2.75
2023-03-18T21:33:49.289Z,2.95
2023-03-18T21:36:16.777Z,2.53
2023-03-18T21:38:44.104Z,2.58
2023-03-18T21:41:22.210Z,2.35
2023-03-18T21:43:50.203Z,2.90
2023-03-18T21:46:19.623Z,2.58
2023-03-18T21:48:47.521Z,2.72
2023-03-18T21:51:38.146Z,2.65
2023-03-18T21:54:06.384Z,2.65
2023-03-18T21:56:33.825Z,2.58
2023-03-18T21:59:01.156Z,2.75
2023-03-18T22:01:31.072Z,3.20
2023-03-18T22:03:58.506Z,2.80
2023-03-18T22:06:25.865Z,2.60
2023-03-18T22:08:53.244Z,2.35
2023-03-18T22:11:22.099Z,2.70
2023-03-18T22:13:50.034Z,3.50
2023-03-18T22:16:19.014Z,2.45
2023-03-18T22:18:47.506Z,2.55
2023-03-18T22:21:25.326Z,2.40
2023-03-18T22:23:52.853Z,2.40
2023-03-18T22:26:20.946Z,2.45
2023-03-18T22:28:48.799Z,2.30
2023-03-18T22:31:18.947Z,2.20
2023-03-18T22:33:46.780Z,2.63
2023-03-18T22:36:15.639Z,2.88
2023-03-18T22:38:43.089Z,2.47
2023-03-18T22:41:31.207Z,3.22
2023-03-18T22:44:00.192Z,2.80
2023-03-18T22:46:28.658Z,3.63
2023-03-18T22:48:56.238Z,3.90
2023-03-18T22:51:24.852Z,2.30
2023-03-18T22:53:53.609Z,2.45
2023-03-18T22:56:21.730Z,2.78
2023-03-18T22:58:49.097Z,2.55
2023-03-18T23:01:17.273Z,2.50
2023-03-18T23:03:44.920Z,2.50
2023-03-18T23:06:17.458Z,2.42
2023-03-18T23:08:45.773Z,2.47
2023-03-18T23:11:13.234Z,2.30
2023-03-18T23:13:41.648Z,2.60
2023-03-18T23:16:12.501Z,2.28
2023-03-18T23:18:39.820Z,1.90
2023-03-18T23:21:07.210Z,2.00
2023-03-18T23:23:34.536Z,2.95
2023-03-18T23:26:02.164Z,3.00
2023-03-18T23:28:29.694Z,2.55
2023-03-18T23:30:56.973Z,2.92
2023-03-18T23:33:24.205Z,3.85
2023-03-18T23:35:52.148Z,3.60
2023-03-18T23:38:19.430Z,3.20
2023-03-18T23:40:46.808Z,3.38
2023-03-18T23:43:14.148Z,3.55
2023-03-18T23:45:41.521Z,3.85
2023-03-18T23:48:08.879Z,3.20
2023-03-18T23:50:36.162Z,3.67
2023-03-18T23:53:03.479Z,3.10
2023-03-18T23:55:34.641Z,2.65
2023-03-18T23:58:02.384Z,2.90
